»·PEaware :: N5MJ KSAN-KLAS

N5MJ :: KSAN-KLAS

FLIGHT INFORMATION

Flight Status: Arrived
Operator: Privately registered:
United States
More flights under this callsign
Pilot: Josh T. (20631)
Aircraft: DASSAULT AVIATION FALCON 50
(FA50)
More flights by this aircraft type
Origin: KSAN San Diego Intl-Lindbergh
United States
Destination: KLAS McCarran Intl
United States
More flights between these airports :: More routes between these airports
Route: PADRZ2 CHKNN SEBBY YELAH MISEN KEPEC6
File this flight plan on PilotEdge
Remarks:
Altitude:
(Current/Filed)
37,000ft
Speed:
(Current/Filed)
475kts
Departed: 18-Mar-20 09:52 PM
Arrived: 18-Mar-20 10:55 PM
Distance/Time
Traveled:
224nm/1:03
Distance/Time
To Go:
Arrived

Flight Plot

Page will automatically refresh every two minutes.

Flight plan parsing failed; only flown route is shown


Map Options




Map Legend


Flown Route
Filed Route
Departure Airport
Arrival Airport
Navaid (VOR, NDB)
Fix

Horizontal Profiles

Position Reports

Time Latitude Longitude Heading Altitude Ground
Speed
18-Mar-20 21:29 32.734022 -117.179758 104 18ft 0kts
18-Mar-20 21:30 32.734022 -117.179758 104 18ft 0kts
18-Mar-20 21:31 32.734022 -117.179758 104 18ft 0kts
18-Mar-20 21:32 32.734022 -117.179758 104 18ft 0kts
18-Mar-20 21:33 32.734022 -117.179758 104 18ft 0kts
18-Mar-20 21:34 32.734022 -117.179758 104 18ft 0kts
18-Mar-20 21:35 32.734022 -117.179758 104 18ft 0kts
18-Mar-20 21:36 32.734022 -117.179758 104 18ft 0kts
18-Mar-20 21:37 32.734022 -117.179758 104 18ft 0kts
18-Mar-20 21:38 32.734022 -117.179758 104 18ft 0kts
18-Mar-20 21:39 32.734022 -117.179758 104 18ft 0kts
18-Mar-20 21:40 32.734022 -117.179758 104 18ft 0kts
18-Mar-20 21:41 32.734022 -117.179758 104 18ft 0kts
18-Mar-20 21:42 32.734022 -117.179758 104 18ft 0kts
18-Mar-20 21:43 32.734022 -117.179758 104 18ft 0kts
18-Mar-20 21:44 32.734022 -117.179757 104 18ft 0kts
18-Mar-20 21:46 32.733934 -117.179452 123 18ft 7kts
18-Mar-20 21:47 32.733424 -117.179515 211 18ft 5kts
18-Mar-20 21:48 32.732133 -117.179081 106 18ft 4kts
18-Mar-20 21:49 32.731025 -117.175582 147 18ft 3kts
18-Mar-20 21:50 32.730995 -117.175560 147 18ft 0kts
18-Mar-20 21:51 32.730141 -117.175605 294 18ft 4kts
18-Mar-20 21:52 32.736991 -117.200395 295 661ft 140kts
18-Mar-20 21:53 32.763879 -117.252148 301 3154ft 231kts
18-Mar-20 21:54 32.803532 -117.324446 305 6418ft 256kts
18-Mar-20 21:55 32.845792 -117.390081 306 8488ft 250kts
18-Mar-20 21:56 32.888558 -117.456499 306 10049ft 255kts
18-Mar-20 21:57 32.931912 -117.523912 306 11466ft 257kts
18-Mar-20 21:58 32.975507 -117.591866 306 12678ft 261kts
18-Mar-20 21:59 33.021835 -117.664234 305 15382ft 283kts
18-Mar-20 22:00 33.072636 -117.738455 314 18409ft 296kts
18-Mar-20 22:01 33.136410 -117.803419 316 20970ft 306kts
18-Mar-20 22:01 33.191137 -117.859259 316 22831ft 314kts
18-Mar-20 22:03 33.271312 -117.937626 318 25097ft 323kts
18-Mar-20 22:04 33.341766 -118.006399 317 26796ft 329kts
18-Mar-20 22:04 33.401222 -118.064614 317 28055ft 333kts
18-Mar-20 22:06 33.485767 -118.147584 317 29586ft 339kts
18-Mar-20 22:07 33.559309 -118.219699 319 30682ft 346kts
18-Mar-20 22:07 33.630731 -118.266270 330 31439ft 357kts
18-Mar-20 22:08 33.728431 -118.297531 0 32327ft 384kts
18-Mar-20 22:10 33.832643 -118.211342 51 33322ft 423kts
18-Mar-20 22:10 33.889961 -118.114858 51 33989ft 428kts
18-Mar-20 22:11 33.960039 -117.996876 51 34717ft 436kts
18-Mar-20 22:12 34.030579 -117.877324 51 35381ft 442kts
18-Mar-20 22:13 34.102335 -117.755836 49 35965ft 447kts
18-Mar-20 22:14 34.182516 -117.639958 46 36514ft 450kts
18-Mar-20 22:15 34.263259 -117.522832 47 36892ft 458kts
18-Mar-20 22:16 34.345561 -117.401897 47 36874ft 473kts
18-Mar-20 22:17 34.429900 -117.277408 48 36853ft 485kts
18-Mar-20 22:18 34.516181 -117.149605 48 36839ft 494kts
18-Mar-20 22:19 34.603734 -117.019442 48 36840ft 500kts
18-Mar-20 22:20 34.692049 -116.887674 48 36525ft 510kts
18-Mar-20 22:21 34.783865 -116.750183 49 33909ft 521kts
18-Mar-20 22:23 34.893871 -116.606262 36 29870ft 481kts
18-Mar-20 22:23 34.979891 -116.522819 36 26965ft 468kts
18-Mar-20 22:24 35.080646 -116.424671 38 23868ft 450kts
18-Mar-20 22:25 35.167803 -116.321563 45 23836ft 430kts
18-Mar-20 22:26 35.250943 -116.217554 45 23404ft 433kts
18-Mar-20 22:27 35.337840 -116.108201 45 21464ft 462kts
18-Mar-20 22:28 35.427297 -115.995243 45 19471ft 448kts
18-Mar-20 22:29 35.511123 -115.889052 45 17465ft 419kts
18-Mar-20 22:30 35.590477 -115.788214 45 15466ft 405kts
18-Mar-20 22:31 35.668055 -115.689335 45 13471ft 399kts
18-Mar-20 22:32 35.738088 -115.600524 39 12973ft 295kts
18-Mar-20 22:33 35.807909 -115.573005 0 13045ft 296kts
18-Mar-20 22:34 35.898749 -115.567684 1 13017ft 327kts
18-Mar-20 22:35 35.975269 -115.526755 45 13003ft 269kts
18-Mar-20 22:36 36.009162 -115.443462 67 11431ft 280kts
18-Mar-20 22:37 36.029437 -115.355512 91 11009ft 256kts
18-Mar-20 22:38 36.022832 -115.261601 94 9717ft 289kts
18-Mar-20 22:39 36.016054 -115.166764 94 8300ft 265kts
18-Mar-20 22:40 36.010549 -115.084924 93 8010ft 216kts
18-Mar-20 22:41 36.006060 -115.009348 93 8055ft 259kts
18-Mar-20 22:42 36.000540 -114.917124 93 7988ft 249kts
18-Mar-20 22:43 35.995871 -114.839247 91 7990ft 213kts
18-Mar-20 22:44 36.042792 -114.812152 353 6677ft 244kts
18-Mar-20 22:45 36.110292 -114.824124 351 5501ft 225kts
18-Mar-20 22:46 36.153623 -114.845267 271 5446ft 147kts
18-Mar-20 22:47 36.144166 -114.909746 257 5552ft 230kts
18-Mar-20 22:48 36.142761 -114.991300 301 5552ft 240kts
18-Mar-20 22:49 36.174039 -115.051391 302 4989ft 177kts
18-Mar-20 22:50 36.194591 -115.100687 253 4222ft 142kts
18-Mar-20 22:51 36.158282 -115.122947 205 3840ft 165kts
18-Mar-20 22:52 36.120386 -115.144537 203 2705ft 141kts
18-Mar-20 22:53 36.088754 -115.162696 204 2185ft 72kts
18-Mar-20 22:54 36.082471 -115.167590 294 2184ft 5kts
18-Mar-20 22:55 36.081594 -115.169219 211 2184ft 9kts
18-Mar-20 22:56 36.081207 -115.170650 267 2184ft 0kts
18-Mar-20 22:58 36.081207 -115.170650 267 2184ft 0kts
18-Mar-20 22:58 36.081207 -115.170650 267 2184ft 0kts
18-Mar-20 22:59 36.081207 -115.170650 267 2184ft 0kts
18-Mar-20 23:00 36.081207 -115.170650 267 2184ft 0kts
18-Mar-20 23:01 36.081207 -115.170650 267 2184ft 0kts
18-Mar-20 23:02 36.081207 -115.170650 267 2184ft 0kts

Navigation Log

Ident Type
Flight plan parsing failed, navigation log unavailable